createdAt,value
2023-01-04T00:00:43.147Z,6.95
2023-01-04T00:03:12.488Z,7.97
2023-01-04T00:05:41.799Z,9.35
2023-01-04T00:08:10.857Z,8.90
2023-01-04T00:10:40.043Z,8.23
2023-01-04T00:13:09.110Z,6.57
2023-01-04T00:15:38.296Z,7.45
2023-01-04T00:18:08.915Z,7.30
2023-01-04T00:20:38.058Z,7.40
2023-01-04T00:23:07.168Z,7.25
2023-01-04T00:25:36.330Z,6.38
2023-01-04T00:28:05.493Z,6.47
2023-01-04T00:30:34.736Z,8.25
2023-01-04T00:33:03.918Z,6.13
2023-01-04T00:35:45.904Z,6.75
2023-01-04T00:38:15.414Z,6.72
2023-01-04T00:40:44.598Z,6.97
2023-01-04T00:43:13.917Z,6.38
2023-01-04T00:45:45.359Z,6.60
2023-01-04T00:48:14.507Z,7.78
2023-01-04T00:50:45.817Z,7.60
2023-01-04T00:53:16.094Z,6.32
2023-01-04T00:55:45.330Z,6.65
2023-01-04T00:58:14.492Z,6.90
2023-01-04T01:00:43.614Z,6.80
2023-01-04T01:03:12.851Z,6.20
2023-01-04T01:05:43.524Z,6.45
2023-01-04T01:08:28.461Z,7.03
2023-01-04T01:11:03.801Z,6.25
2023-01-04T01:13:33.338Z,6.15
2023-01-04T01:16:06.605Z,6.05
2023-01-04T01:18:36.532Z,6.03
2023-01-04T01:21:09.417Z,6.75
2023-01-04T01:23:38.934Z,5.72
2023-01-04T01:26:09.812Z,6.30
2023-01-04T01:28:39.351Z,6.20
2023-01-04T01:31:10.155Z,5.45
2023-01-04T01:33:39.879Z,7.13
2023-01-04T01:36:11.675Z,7.47
2023-01-04T01:38:41.926Z,5.43
2023-01-04T01:41:18.578Z,5.45
2023-01-04T01:43:51.245Z,5.57
2023-01-04T01:46:25.147Z,5.20
2023-01-04T01:49:00.162Z,5.40
2023-01-04T01:51:32.096Z,5.90
2023-01-04T01:54:06.224Z,5.57
2023-01-04T01:56:37.641Z,5.50
2023-01-04T01:59:08.458Z,5.35
2023-01-04T02:01:37.923Z,5.25
2023-01-04T02:04:08.892Z,5.95
2023-01-04T02:06:44.091Z,6.00
2023-01-04T02:09:14.117Z,5.20
2023-01-04T02:11:43.177Z,4.95
2023-01-04T02:14:28.716Z,5.50
2023-01-04T02:17:28.528Z,5.07
2023-01-04T02:20:28.886Z,4.70
2023-01-04T02:23:48.075Z,5.95
2023-01-04T02:27:07.846Z,5.50
2023-01-04T02:30:19.399Z,5.03
2023-01-04T02:33:05.820Z,4.20
2023-01-04T02:35:43.378Z,4.72
2023-01-04T02:38:24.170Z,5.43
2023-01-04T02:41:04.978Z,4.90
2023-01-04T02:44:14.444Z,5.38
2023-01-04T02:46:47.385Z,4.85
2023-01-04T02:49:35.181Z,5.35
2023-01-04T02:52:04.303Z,5.75
2023-01-04T02:54:34.521Z,5.75
2023-01-04T02:57:16.384Z,4.40
2023-01-04T03:00:24.564Z,5.20
2023-01-04T03:03:30.495Z,5.00
2023-01-04T03:06:16.749Z,5.05
2023-01-04T03:08:56.060Z,5.40
2023-01-04T03:11:50.128Z,5.30
2023-01-04T03:14:32.779Z,5.63
2023-01-04T03:17:07.264Z,6.22
2023-01-04T03:19:55.264Z,5.82
2023-01-04T03:22:51.547Z,7.13
2023-01-04T03:25:42.660Z,5.75
2023-01-04T03:28:32.064Z,5.68
2023-01-04T03:31:26.534Z,4.90
2023-01-04T03:34:13.071Z,6.53
2023-01-04T03:36:54.122Z,5.53
2023-01-04T03:39:50.736Z,6.00
2023-01-04T03:42:44.700Z,5.43
2023-01-04T03:45:38.772Z,6.05
2023-01-04T03:48:31.652Z,5.07
2023-01-04T03:51:14.934Z,5.50
2023-01-04T03:53:57.155Z,5.28
2023-01-04T03:56:30.810Z,4.38
2023-01-04T03:59:00.952Z,5.28
2023-01-04T04:01:30.611Z,5.95
2023-01-04T04:04:17.477Z,6.35
2023-01-04T04:07:04.193Z,6.13
2023-01-04T04:09:33.564Z,6.35
2023-01-04T04:12:04.313Z,5.57
2023-01-04T04:14:33.518Z,5.85
2023-01-04T04:17:02.701Z,5.72
2023-01-04T04:19:31.899Z,4.97
2023-01-04T04:22:01.108Z,4.80
2023-01-04T04:24:30.295Z,5.43
2023-01-04T04:26:59.522Z,6.43
2023-01-04T04:29:30.156Z,5.30
2023-01-04T04:31:59.353Z,6.00
2023-01-04T04:34:28.491Z,5.82
2023-01-04T04:36:57.821Z,5.03
2023-01-04T04:39:26.917Z,6.05
2023-01-04T04:41:54.960Z,6.15
2023-01-04T04:44:24.292Z,5.50
2023-01-04T04:46:54.878Z,6.22
2023-01-04T04:49:24.077Z,5.70
2023-01-04T04:51:53.320Z,5.75
2023-01-04T04:54:23.758Z,7.05
2023-01-04T04:56:52.896Z,5.53
2023-01-04T04:59:22.101Z,5.70
2023-01-04T05:01:51.331Z,5.00
2023-01-04T05:04:22.018Z,5.50
2023-01-04T05:06:53.165Z,6.03
2023-01-04T05:09:22.305Z,5.43
2023-01-04T05:17:47.814Z,5.63
2023-01-04T05:20:18.508Z,5.45
2023-01-04T05:22:47.713Z,5.05
2023-01-04T05:25:30.213Z,5.88
2023-01-04T05:27:59.444Z,4.80
2023-01-04T05:30:46.198Z,4.28
2023-01-04T05:33:15.512Z,4.85
2023-01-04T05:35:46.152Z,5.00
2023-01-04T05:38:15.328Z,5.05
2023-01-04T05:40:44.645Z,4.80
2023-01-04T05:43:15.011Z,5.32
2023-01-04T05:45:48.660Z,4.55
2023-01-04T05:48:17.968Z,4.78
2023-01-04T05:50:48.820Z,5.22
2023-01-04T05:53:19.108Z,4.25
2023-01-04T05:55:50.047Z,5.07
2023-01-04T05:58:19.260Z,4.68
2023-01-04T06:00:48.343Z,4.55
2023-01-04T06:03:17.559Z,5.15
2023-01-04T06:05:52.090Z,4.10
2023-01-04T06:08:21.550Z,4.75
2023-01-04T06:10:55.097Z,4.63
2023-01-04T06:13:24.191Z,5.03
2023-01-04T06:15:53.317Z,4.03
2023-01-04T06:18:22.448Z,4.82
2023-01-04T06:20:54.609Z,5.05
2023-01-04T06:23:23.677Z,4.78
2023-01-04T06:25:52.888Z,4.35
2023-01-04T06:28:22.028Z,5.10
2023-01-04T06:30:51.228Z,5.65
2023-01-04T06:33:20.417Z,4.55
2023-01-04T06:35:57.556Z,4.13
2023-01-04T06:38:26.924Z,4.10
2023-01-04T06:40:56.006Z,4.43
2023-01-04T06:43:25.334Z,4.05
2023-01-04T06:45:54.844Z,3.28
2023-01-04T06:48:24.037Z,3.80
2023-01-04T06:50:53.117Z,3.60
2023-01-04T06:53:23.665Z,3.45
2023-01-04T06:55:52.740Z,3.13
2023-01-04T06:58:21.851Z,3.97
2023-01-04T07:00:53.095Z,3.25
2023-01-04T07:03:22.342Z,2.53
2023-01-04T07:05:52.138Z,2.92
2023-01-04T07:08:23.185Z,2.83
2023-01-04T07:10:52.474Z,3.35
2023-01-04T07:13:21.671Z,2.10
2023-01-04T07:15:50.869Z,4.20
2023-01-04T07:18:20.131Z,3.15
2023-01-04T07:20:49.332Z,3.10
2023-01-04T07:23:18.575Z,3.28
2023-01-04T07:25:49.081Z,3.38
2023-01-04T07:28:39.093Z,2.63
2023-01-04T07:31:09.309Z,4.07
2023-01-04T07:33:38.398Z,2.58
2023-01-04T07:36:08.581Z,3.00
2023-01-04T07:38:37.763Z,2.40
2023-01-04T07:41:08.329Z,3.00
2023-01-04T07:43:37.388Z,3.10
2023-01-04T07:46:06.660Z,3.05
2023-01-04T07:48:35.956Z,2.83
2023-01-04T07:51:05.231Z,2.80
2023-01-04T07:53:35.731Z,2.83
2023-01-04T07:56:04.768Z,2.85
2023-01-04T07:58:35.655Z,3.10
2023-01-04T08:01:09.080Z,2.95
2023-01-04T08:03:38.631Z,2.97
2023-01-04T08:06:09.123Z,3.20
2023-01-04T08:08:38.337Z,2.70
2023-01-04T08:11:09.186Z,3.55
2023-01-04T08:13:40.102Z,3.42
2023-01-04T08:16:09.804Z,2.90
2023-01-04T08:18:38.933Z,2.40
2023-01-04T08:21:09.734Z,2.88
2023-01-04T08:23:40.151Z,3.17
2023-01-04T08:26:11.379Z,2.95
2023-01-04T08:28:42.447Z,3.05
2023-01-04T08:31:14.760Z,3.28
2023-01-04T08:33:45.242Z,3.28
2023-01-04T08:36:26.016Z,2.72
2023-01-04T08:39:00.966Z,3.47
2023-01-04T08:41:56.658Z,3.00
2023-01-04T08:44:23.583Z,3.75
2023-01-04T08:46:55.040Z,3.20
2023-01-04T08:49:25.046Z,2.53
2023-01-04T08:51:54.436Z,3.03
2023-01-04T08:54:23.945Z,5.18
2023-01-04T08:56:53.262Z,3.05
2023-01-04T08:59:23.828Z,2.90
2023-01-04T09:01:53.119Z,4.05
2023-01-04T09:04:22.415Z,3.58
2023-01-04T09:06:51.612Z,2.80
2023-01-04T09:09:20.764Z,2.72
2023-01-04T09:11:49.786Z,3.13
2023-01-04T09:14:18.850Z,3.05
2023-01-04T09:16:49.365Z,4.53
2023-01-04T09:19:22.176Z,3.53
2023-01-04T09:21:51.956Z,3.38
2023-01-04T09:24:21.244Z,4.85
2023-01-04T09:26:50.455Z,3.15
2023-01-04T09:29:19.592Z,3.47
2023-01-04T09:31:50.271Z,5.53
2023-01-04T09:34:19.599Z,3.22
2023-01-04T09:36:49.767Z,3.60
2023-01-04T09:39:22.991Z,3.35
2023-01-04T09:41:58.672Z,3.47
2023-01-04T09:45:22.064Z,3.50
2023-01-04T09:47:36.967Z,4.35
2023-01-04T09:50:14.135Z,3.53
2023-01-04T09:52:53.160Z,3.28
2023-01-04T09:55:37.565Z,3.65
2023-01-04T09:58:24.847Z,3.88
2023-01-04T10:01:00.904Z,4.65
2023-01-04T10:03:35.195Z,3.85
2023-01-04T10:06:08.774Z,3.72
2023-01-04T10:08:38.099Z,4.03
2023-01-04T10:11:18.879Z,4.70
2023-01-04T10:14:03.925Z,3.70
2023-01-04T10:17:12.940Z,2.85
2023-01-04T10:22:58.927Z,3.40
2023-01-04T10:25:37.767Z,5.75
2023-01-04T10:28:22.856Z,3.38
2023-01-04T10:31:38.833Z,3.30
2023-01-04T10:33:54.843Z,3.20
2023-01-04T10:36:31.484Z,4.07
2023-01-04T10:39:05.571Z,4.50
2023-01-04T10:41:41.836Z,3.85
2023-01-04T10:44:18.944Z,5.55
2023-01-04T10:46:55.326Z,3.85
2023-01-04T10:49:30.921Z,3.78
2023-01-04T10:52:07.457Z,3.70
2023-01-04T10:54:43.494Z,3.42
2023-01-04T10:57:19.934Z,3.80
2023-01-04T10:59:54.233Z,3.42
2023-01-04T11:02:29.794Z,3.88
2023-01-04T11:05:06.110Z,4.03
2023-01-04T11:07:43.129Z,3.25
2023-01-04T11:10:16.709Z,4.53
2023-01-04T11:12:46.727Z,3.75
2023-01-04T11:15:16.154Z,3.60
2023-01-04T11:17:46.842Z,3.38
2023-01-04T11:20:16.237Z,3.88
2023-01-04T11:22:55.323Z,4.35
2023-01-04T11:25:41.024Z,4.20
2023-01-04T11:28:18.140Z,3.58
2023-01-04T11:30:57.828Z,4.15
2023-01-04T11:33:27.666Z,3.58
2023-01-04T11:35:59.601Z,5.20
2023-01-04T11:38:31.648Z,3.67
2023-01-04T11:41:03.020Z,5.25
2023-01-04T11:43:33.481Z,4.93
2023-01-04T11:46:05.506Z,4.70
2023-01-04T11:48:41.516Z,5.20
2023-01-04T11:51:34.509Z,3.95
2023-01-04T11:54:07.411Z,4.45
2023-01-04T11:56:38.619Z,4.28
2023-01-04T11:59:22.888Z,3.63
2023-01-04T12:02:28.584Z,4.53
2023-01-04T12:05:01.507Z,5.00
2023-01-04T12:07:33.107Z,3.28
2023-01-04T12:10:14.729Z,3.70
2023-01-04T12:12:43.890Z,4.45
2023-01-04T12:15:21.976Z,5.28
2023-01-04T12:17:57.397Z,4.82
2023-01-04T12:20:30.038Z,3.50
2023-01-04T12:22:59.224Z,3.97
2023-01-04T12:25:36.726Z,3.75
2023-01-04T12:28:06.840Z,5.03
2023-01-04T12:30:38.556Z,4.20
2023-01-04T12:33:40.402Z,6.10
2023-01-04T12:36:11.184Z,3.60
2023-01-04T12:39:02.935Z,4.65
2023-01-04T12:42:15.836Z,4.53
2023-01-04T12:45:22.148Z,3.78
2023-01-04T12:48:10.351Z,3.65
2023-01-04T12:51:32.955Z,4.55
2023-01-04T12:54:04.649Z,3.88
2023-01-04T12:57:22.179Z,4.43
2023-01-04T13:00:00.625Z,4.28
2023-01-04T13:02:34.109Z,4.10
2023-01-04T13:07:58.037Z,5.05
2023-01-04T13:10:34.787Z,4.43
2023-01-04T13:13:23.472Z,4.50
2023-01-04T13:16:10.096Z,4.30
2023-01-04T13:18:46.875Z,3.90
2023-01-04T13:21:22.020Z,5.82
2023-01-04T13:23:54.069Z,4.63
2023-01-04T13:26:40.549Z,4.05
2023-01-04T13:29:17.180Z,4.80
2023-01-04T13:31:56.390Z,3.85
2023-01-04T13:34:32.525Z,4.97
2023-01-04T13:37:09.017Z,4.43
2023-01-04T13:39:40.620Z,3.70
2023-01-04T13:42:25.325Z,5.15
2023-01-04T13:45:42.264Z,3.75
2023-01-04T13:48:16.059Z,2.70
2023-01-04T13:50:59.756Z,3.88
2023-01-04T13:53:31.737Z,3.97
2023-01-04T13:56:03.346Z,3.65
2023-01-04T13:58:34.762Z,4.13
2023-01-04T14:01:08.476Z,3.10
2023-01-04T14:03:43.647Z,3.53
2023-01-04T14:06:21.080Z,3.17
2023-01-04T14:09:00.622Z,2.85
2023-01-04T14:11:50.369Z,3.13
2023-01-04T14:14:33.339Z,2.95
2023-01-04T14:17:32.918Z,4.00
2023-01-04T14:20:06.022Z,3.33
2023-01-04T14:22:43.108Z,2.60
2023-01-04T14:25:56.805Z,2.92
2023-01-04T14:28:49.446Z,5.10
2023-01-04T14:31:27.144Z,4.30
2023-01-04T14:33:57.951Z,3.50
2023-01-04T14:36:29.499Z,3.10
2023-01-04T14:39:20.514Z,3.55
2023-01-04T14:41:59.927Z,2.40
2023-01-04T14:44:32.580Z,2.80
2023-01-04T14:47:06.547Z,3.00
2023-01-04T14:49:36.386Z,2.70
2023-01-04T14:52:11.680Z,3.13
2023-01-04T14:54:42.746Z,3.72
2023-01-04T14:57:12.740Z,2.60
2023-01-04T14:59:44.566Z,2.88
2023-01-04T15:02:14.343Z,3.03
2023-01-04T15:04:43.857Z,2.70
2023-01-04T15:07:35.453Z,2.50
2023-01-04T15:10:09.093Z,2.55
2023-01-04T15:12:38.448Z,2.35
2023-01-04T15:15:09.010Z,2.50
2023-01-04T15:17:38.557Z,2.65
2023-01-04T15:20:09.354Z,3.20
2023-01-04T15:22:39.452Z,2.15
2023-01-04T15:25:11.849Z,1.95
2023-01-04T15:27:42.826Z,2.65
2023-01-04T15:30:13.618Z,2.75
2023-01-04T15:32:43.497Z,1.73
2023-01-04T15:35:16.510Z,3.10
2023-01-04T15:37:46.413Z,2.20
2023-01-04T15:40:19.943Z,2.30
2023-01-04T15:43:01.636Z,2.03
2023-01-04T15:45:36.299Z,2.28
2023-01-04T15:48:06.820Z,2.47
2023-01-04T15:50:39.263Z,2.28
2023-01-04T15:53:09.755Z,2.30
2023-01-04T15:55:41.132Z,2.60
2023-01-04T15:58:10.910Z,2.30
2023-01-04T16:00:40.760Z,2.58
2023-01-04T16:03:10.378Z,1.80
2023-01-04T16:05:39.997Z,1.40
2023-01-04T16:08:09.718Z,3.40
2023-01-04T16:10:40.926Z,2.20
2023-01-04T16:13:10.556Z,3.40
2023-01-04T16:15:39.960Z,1.37
2023-01-04T16:18:10.977Z,1.92
2023-01-04T16:20:43.511Z,2.35
2023-01-04T16:23:12.963Z,2.03
2023-01-04T16:25:44.283Z,2.60
2023-01-04T16:28:13.843Z,2.10
2023-01-04T16:30:43.354Z,2.25
2023-01-04T16:33:13.040Z,2.22
2023-01-04T16:35:42.745Z,1.77
2023-01-04T16:38:12.579Z,2.40
2023-01-04T16:40:43.953Z,2.38
2023-01-04T16:43:13.816Z,1.25
2023-01-04T16:45:43.436Z,2.10
2023-01-04T16:48:18.578Z,1.98
2023-01-04T16:50:48.293Z,2.00
2023-01-04T16:53:17.870Z,1.83
2023-01-04T16:55:50.656Z,1.70
2023-01-04T16:58:20.009Z,2.10
2023-01-04T17:00:49.635Z,2.20
2023-01-04T17:03:19.131Z,2.35
2023-01-04T17:05:48.567Z,1.80
2023-01-04T17:08:22.050Z,2.25
2023-01-04T17:11:01.542Z,1.83
2023-01-04T17:13:40.536Z,1.80
2023-01-04T17:16:10.943Z,1.58
2023-01-04T17:18:40.685Z,1.70
2023-01-04T17:21:33.262Z,1.90
2023-01-04T17:24:01.948Z,2.07
2023-01-04T17:26:34.390Z,1.70
2023-01-04T17:29:04.565Z,1.60
2023-01-04T17:31:35.353Z,1.53
2023-01-04T17:34:05.067Z,1.20
2023-01-04T17:36:34.446Z,1.20
2023-01-04T17:39:04.085Z,1.20
2023-01-04T17:41:34.664Z,1.97
2023-01-04T17:44:06.001Z,1.53
2023-01-04T17:46:37.677Z,1.45
2023-01-04T17:49:27.964Z,1.50
2023-01-04T17:51:57.889Z,2.07
2023-01-04T17:54:27.271Z,1.53
2023-01-04T17:56:57.904Z,2.00
2023-01-04T17:59:27.229Z,1.97
2023-01-04T18:01:56.380Z,1.20
2023-01-04T18:04:25.603Z,1.50
2023-01-04T18:06:54.699Z,1.00
2023-01-04T18:09:25.643Z,1.57
2023-01-04T18:11:56.375Z,1.47
2023-01-04T18:14:26.314Z,1.70
2023-01-04T18:16:58.916Z,1.80
2023-01-04T18:19:30.281Z,1.50
2023-01-04T18:22:00.054Z,1.17
2023-01-04T18:24:38.162Z,1.67
2023-01-04T18:27:27.484Z,1.10
2023-01-04T18:29:57.470Z,1.93
2023-01-04T18:32:28.001Z,1.63
2023-01-04T18:34:57.123Z,1.47
2023-01-04T18:37:26.262Z,1.53
2023-01-04T18:39:55.416Z,1.30
2023-01-04T18:42:26.125Z,1.43
2023-01-04T18:44:56.007Z,1.80
2023-01-04T18:47:48.288Z,1.60
2023-01-04T18:50:18.695Z,1.80
2023-01-04T18:52:47.893Z,1.63
2023-01-04T18:55:17.997Z,1.40
2023-01-04T18:57:49.348Z,1.40
2023-01-04T19:00:18.936Z,1.17
2023-01-04T19:02:48.139Z,1.47
2023-01-04T19:05:19.080Z,1.57
2023-01-04T19:07:50.383Z,0.97
2023-01-04T19:10:19.698Z,1.27
2023-01-04T19:12:50.189Z,1.50
2023-01-04T19:15:19.688Z,1.53
2023-01-04T19:17:48.852Z,2.63
2023-01-04T19:20:18.030Z,2.20
2023-01-04T19:22:47.322Z,1.47
2023-01-04T19:25:16.437Z,2.10
2023-01-04T19:27:45.767Z,1.43
2023-01-04T19:30:17.090Z,1.27
2023-01-04T19:32:46.382Z,1.27
2023-01-04T19:35:15.503Z,1.43
2023-01-04T19:37:44.829Z,1.53
2023-01-04T19:40:14.131Z,1.10
2023-01-04T19:42:44.495Z,1.47
2023-01-04T19:45:15.435Z,2.60
2023-01-04T19:47:46.561Z,1.20
2023-01-04T19:50:15.670Z,0.90
2023-01-04T19:52:45.814Z,1.37
2023-01-04T19:55:14.952Z,1.13
2023-01-04T19:57:44.023Z,1.20
2023-01-04T20:00:15.971Z,1.67
2023-01-04T20:02:46.027Z,1.00
2023-01-04T20:05:16.450Z,1.40
2023-01-04T20:07:46.712Z,1.23
2023-01-04T20:10:16.487Z,1.27
2023-01-04T20:12:46.475Z,1.20
2023-01-04T20:15:18.062Z,1.13
2023-01-04T20:17:48.119Z,1.20
2023-01-04T20:20:19.797Z,1.60
2023-01-04T20:22:50.535Z,1.20
2023-01-04T20:25:23.927Z,1.20
2023-01-04T20:27:54.667Z,1.33
2023-01-04T20:30:27.823Z,1.50
2023-01-04T20:33:02.219Z,1.53
2023-01-04T20:35:33.697Z,1.60
2023-01-04T20:38:04.243Z,1.57
2023-01-04T20:40:35.968Z,1.57
2023-01-04T20:43:23.535Z,1.33
2023-01-04T20:45:55.196Z,2.20
2023-01-04T20:48:26.841Z,1.50
2023-01-04T20:51:24.775Z,1.50
2023-01-04T20:54:01.794Z,1.83
2023-01-04T20:56:39.747Z,1.23
2023-01-04T20:59:10.360Z,1.60
2023-01-04T21:01:47.556Z,1.30
2023-01-04T21:04:22.910Z,1.57
2023-01-04T21:06:53.287Z,1.53
2023-01-04T21:09:25.465Z,1.77
2023-01-04T21:12:07.337Z,3.93
2023-01-04T21:14:43.661Z,1.50
2023-01-04T21:17:18.524Z,3.10
2023-01-04T21:19:51.609Z,3.37
2023-01-04T21:22:27.192Z,2.57
2023-01-04T21:24:59.016Z,1.50
2023-01-04T21:27:31.936Z,2.27
2023-01-04T21:30:10.849Z,1.83
2023-01-04T21:32:45.014Z,1.87
2023-01-04T21:35:15.599Z,1.50
2023-01-04T21:37:46.826Z,2.10
2023-01-04T21:40:19.896Z,2.93
2023-01-04T21:42:58.786Z,3.53
2023-01-04T21:45:30.304Z,2.70
2023-01-04T21:48:05.483Z,1.90
2023-01-04T21:50:40.777Z,2.10
2023-01-04T21:53:14.138Z,1.60
2023-01-04T21:55:50.541Z,2.13
2023-01-04T21:58:22.884Z,1.90
2023-01-04T22:00:53.999Z,1.80
2023-01-04T22:03:30.614Z,1.80
2023-01-04T22:06:27.847Z,1.80
2023-01-04T22:08:59.333Z,2.10
2023-01-04T22:11:33.307Z,2.07
2023-01-04T22:14:17.927Z,2.13
2023-01-04T22:16:51.226Z,1.77
2023-01-04T22:19:23.820Z,2.70
2023-01-04T22:21:55.426Z,1.90
2023-01-04T22:24:26.127Z,1.90
2023-01-04T22:26:56.427Z,2.37
2023-01-04T22:30:17.927Z,2.77
2023-01-04T22:32:51.654Z,1.67
2023-01-04T22:35:26.959Z,1.83
2023-01-04T22:38:01.822Z,1.90
2023-01-04T22:40:35.174Z,1.40
2023-01-04T22:43:06.035Z,1.73
2023-01-04T22:45:39.864Z,1.43
2023-01-04T22:48:12.610Z,2.25
2023-01-04T22:50:44.866Z,1.60
2023-01-04T22:53:15.961Z,1.35
2023-01-04T22:58:45.366Z,1.23
2023-01-04T23:01:23.068Z,1.13
2023-01-04T23:03:55.595Z,1.67
2023-01-04T23:06:33.168Z,1.23
2023-01-04T23:09:08.675Z,0.87
2023-01-04T23:11:39.673Z,1.63
2023-01-04T23:14:15.915Z,1.00
2023-01-04T23:16:47.294Z,1.85
2023-01-04T23:19:19.512Z,1.40
2023-01-04T23:22:00.245Z,1.20
2023-01-04T23:24:41.111Z,1.37
2023-01-04T23:27:14.161Z,1.80
2023-01-04T23:29:49.394Z,1.63
2023-01-04T23:32:20.233Z,1.73
2023-01-04T23:34:52.453Z,1.40
2023-01-04T23:37:23.410Z,1.80
2023-01-04T23:39:52.692Z,1.90
2023-01-04T23:42:21.964Z,1.70
2023-01-04T23:44:51.288Z,2.47
2023-01-04T23:47:20.779Z,2.57
2023-01-04T23:49:50.287Z,3.10
2023-01-04T23:52:22.185Z,2.37
2023-01-04T23:54:53.071Z,2.35
2023-01-04T23:57:22.395Z,2.60
2023-01-04T23:59:52.714Z,2.10
